sensor_id;sensor_type;location;lat;lon;timestamp;temperature;humidity
75022;SHT31;63583;49.976;20.182;2024-03-22T00:00:29;9.60;65.22
75022;SHT31;63583;49.976;20.182;2024-03-22T00:03:15;9.61;65.25
75022;SHT31;63583;49.976;20.182;2024-03-22T00:05:41;9.59;65.10
75022;SHT31;63583;49.976;20.182;2024-03-22T00:08:07;9.61;65.35
75022;SHT31;63583;49.976;20.182;2024-03-22T00:10:34;9.57;65.91
75022;SHT31;63583;49.976;20.182;2024-03-22T00:13:00;9.69;65.84
75022;SHT31;63583;49.976;20.182;2024-03-22T00:15:26;9.74;66.01
75022;SHT31;63583;49.976;20.182;2024-03-22T00:17:51;9.86;65.85
75022;SHT31;63583;49.976;20.182;2024-03-22T00:20:17;9.90;66.11
75022;SHT31;63583;49.976;20.182;2024-03-22T00:22:43;9.93;66.33
75022;SHT31;63583;49.976;20.182;2024-03-22T00:25:09;9.95;66.79
75022;SHT31;63583;49.976;20.182;2024-03-22T00:27:35;9.97;66.89
75022;SHT31;63583;49.976;20.182;2024-03-22T00:30:00;10.05;67.20
75022;SHT31;63583;49.976;20.182;2024-03-22T00:32:26;10.16;67.12
75022;SHT31;63583;49.976;20.182;2024-03-22T00:34:52;10.26;67.40
75022;SHT31;63583;49.976;20.182;2024-03-22T00:37:18;10.35;67.20
75022;SHT31;63583;49.976;20.182;2024-03-22T00:39:44;10.36;67.47
75022;SHT31;63583;49.976;20.182;2024-03-22T00:42:09;10.46;67.39
75022;SHT31;63583;49.976;20.182;2024-03-22T00:44:35;10.48;67.29
75022;SHT31;63583;49.976;20.182;2024-03-22T00:47:01;10.53;67.41
75022;SHT31;63583;49.976;20.182;2024-03-22T00:49:29;10.49;67.48
75022;SHT31;63583;49.976;20.182;2024-03-22T00:51:55;10.63;67.45
75022;SHT31;63583;49.976;20.182;2024-03-22T00:54:22;10.63;67.70
75022;SHT31;63583;49.976;20.182;2024-03-22T00:56:48;10.63;67.88
75022;SHT31;63583;49.976;20.182;2024-03-22T00:59:13;10.66;68.22
75022;SHT31;63583;49.976;20.182;2024-03-22T01:01:39;10.70;68.05
75022;SHT31;63583;49.976;20.182;2024-03-22T01:04:05;10.66;68.59
75022;SHT31;63583;49.976;20.182;2024-03-22T01:06:30;10.67;69.12
75022;SHT31;63583;49.976;20.182;2024-03-22T01:08:56;10.64;69.33
75022;SHT31;63583;49.976;20.182;2024-03-22T01:11:22;10.67;69.69
75022;SHT31;63583;49.976;20.182;2024-03-22T01:13:48;10.59;70.10
75022;SHT31;63583;49.976;20.182;2024-03-22T01:16:13;10.74;69.78
75022;SHT31;63583;49.976;20.182;2024-03-22T01:18:39;10.74;70.06
75022;SHT31;63583;49.976;20.182;2024-03-22T01:21:05;10.79;70.26
75022;SHT31;63583;49.976;20.182;2024-03-22T01:23:31;10.73;70.58
75022;SHT31;63583;49.976;20.182;2024-03-22T01:25:57;10.67;70.81
75022;SHT31;63583;49.976;20.182;2024-03-22T01:28:23;10.64;71.00
75022;SHT31;63583;49.976;20.182;2024-03-22T01:30:48;10.59;71.39
75022;SHT31;63583;49.976;20.182;2024-03-22T01:33:14;10.60;71.62
75022;SHT31;63583;49.976;20.182;2024-03-22T01:35:40;10.63;71.59
75022;SHT31;63583;49.976;20.182;2024-03-22T01:38:06;10.53;72.24
75022;SHT31;63583;49.976;20.182;2024-03-22T01:40:32;10.45;72.84
75022;SHT31;63583;49.976;20.182;2024-03-22T01:42:59;10.57;72.89
75022;SHT31;63583;49.976;20.182;2024-03-22T01:45:25;10.46;73.25
75022;SHT31;63583;49.976;20.182;2024-03-22T01:47:52;10.39;73.59
75022;SHT31;63583;49.976;20.182;2024-03-22T01:50:20;10.42;73.88
75022;SHT31;63583;49.976;20.182;2024-03-22T01:52:47;10.39;74.14
75022;SHT31;63583;49.976;20.182;2024-03-22T01:55:13;10.41;74.31
75022;SHT31;63583;49.976;20.182;2024-03-22T01:57:39;10.46;74.20
75022;SHT31;63583;49.976;20.182;2024-03-22T02:00:06;10.53;73.95
75022;SHT31;63583;49.976;20.182;2024-03-22T02:02:34;10.41;74.27
75022;SHT31;63583;49.976;20.182;2024-03-22T02:05:11;10.45;74.10
75022;SHT31;63583;49.976;20.182;2024-03-22T02:07:37;10.41;74.36
75022;SHT31;63583;49.976;20.182;2024-03-22T02:10:03;10.35;74.80
75022;SHT31;63583;49.976;20.182;2024-03-22T02:12:29;10.35;74.69
75022;SHT31;63583;49.976;20.182;2024-03-22T02:14:57;10.39;74.74
75022;SHT31;63583;49.976;20.182;2024-03-22T02:17:23;10.36;74.78
75022;SHT31;63583;49.976;20.182;2024-03-22T02:19:49;10.45;74.86
75022;SHT31;63583;49.976;20.182;2024-03-22T02:22:15;10.43;74.69
75022;SHT31;63583;49.976;20.182;2024-03-22T02:24:41;10.38;75.14
75022;SHT31;63583;49.976;20.182;2024-03-22T02:27:07;10.50;74.84
75022;SHT31;63583;49.976;20.182;2024-03-22T02:29:32;10.46;75.10
75022;SHT31;63583;49.976;20.182;2024-03-22T02:31:58;10.33;75.65
75022;SHT31;63583;49.976;20.182;2024-03-22T02:34:24;10.39;75.55
75022;SHT31;63583;49.976;20.182;2024-03-22T02:36:50;10.43;75.39
75022;SHT31;63583;49.976;20.182;2024-03-22T02:39:15;10.43;75.54
75022;SHT31;63583;49.976;20.182;2024-03-22T02:41:41;10.41;75.76
75022;SHT31;63583;49.976;20.182;2024-03-22T02:44:07;10.39;75.82
75022;SHT31;63583;49.976;20.182;2024-03-22T02:46:33;10.39;76.01
75022;SHT31;63583;49.976;20.182;2024-03-22T02:48:59;10.41;76.10
75022;SHT31;63583;49.976;20.182;2024-03-22T02:51:26;10.36;76.42
75022;SHT31;63583;49.976;20.182;2024-03-22T02:53:51;10.41;76.23
75022;SHT31;63583;49.976;20.182;2024-03-22T02:56:17;10.36;76.51
75022;SHT31;63583;49.976;20.182;2024-03-22T02:58:43;10.36;76.67
75022;SHT31;63583;49.976;20.182;2024-03-22T03:01:09;10.33;76.97
75022;SHT31;63583;49.976;20.182;2024-03-22T03:03:35;10.35;77.05
75022;SHT31;63583;49.976;20.182;2024-03-22T03:06:01;10.28;77.22
75022;SHT31;63583;49.976;20.182;2024-03-22T03:08:26;10.29;77.54
75022;SHT31;63583;49.976;20.182;2024-03-22T03:10:52;10.22;77.94
75022;SHT31;63583;49.976;20.182;2024-03-22T03:13:18;10.21;78.14
75022;SHT31;63583;49.976;20.182;2024-03-22T03:15:44;10.24;78.08
75022;SHT31;63583;49.976;20.182;2024-03-22T03:18:09;10.15;78.64
75022;SHT31;63583;49.976;20.182;2024-03-22T03:20:35;10.19;78.57
75022;SHT31;63583;49.976;20.182;2024-03-22T03:23:01;10.25;78.52
75022;SHT31;63583;49.976;20.182;2024-03-22T03:25:27;10.21;78.87
75022;SHT31;63583;49.976;20.182;2024-03-22T03:27:53;10.11;79.52
75022;SHT31;63583;49.976;20.182;2024-03-22T03:30:19;10.15;79.57
75022;SHT31;63583;49.976;20.182;2024-03-22T03:32:44;10.08;80.09
75022;SHT31;63583;49.976;20.182;2024-03-22T03:35:10;10.14;80.11
75022;SHT31;63583;49.976;20.182;2024-03-22T03:37:36;10.21;80.10
75022;SHT31;63583;49.976;20.182;2024-03-22T03:40:02;10.25;80.18
75022;SHT31;63583;49.976;20.182;2024-03-22T03:42:28;10.25;80.19
75022;SHT31;63583;49.976;20.182;2024-03-22T03:44:54;10.14;80.53
75022;SHT31;63583;49.976;20.182;2024-03-22T03:47:19;10.28;80.12
75022;SHT31;63583;49.976;20.182;2024-03-22T03:49:46;10.16;80.39
75022;SHT31;63583;49.976;20.182;2024-03-22T03:52:12;10.18;80.70
75022;SHT31;63583;49.976;20.182;2024-03-22T03:54:38;10.08;80.99
75022;SHT31;63583;49.976;20.182;2024-03-22T03:57:03;9.99;81.45
75022;SHT31;63583;49.976;20.182;2024-03-22T03:59:30;10.02;81.46
75022;SHT31;63583;49.976;20.182;2024-03-22T04:01:55;9.98;81.74
75022;SHT31;63583;49.976;20.182;2024-03-22T04:04:21;10.02;81.77
75022;SHT31;63583;49.976;20.182;2024-03-22T04:06:47;10.01;81.89
75022;SHT31;63583;49.976;20.182;2024-03-22T04:09:13;10.04;81.72
75022;SHT31;63583;49.976;20.182;2024-03-22T04:11:38;9.99;82.08
75022;SHT31;63583;49.976;20.182;2024-03-22T04:14:05;10.18;81.51
75022;SHT31;63583;49.976;20.182;2024-03-22T04:16:32;10.11;81.92
75022;SHT31;63583;49.976;20.182;2024-03-22T04:18:58;10.01;82.36
75022;SHT31;63583;49.976;20.182;2024-03-22T04:21:24;9.99;82.71
75022;SHT31;63583;49.976;20.182;2024-03-22T04:23:50;10.06;82.55
75022;SHT31;63583;49.976;20.182;2024-03-22T04:26:16;10.01;82.73
75022;SHT31;63583;49.976;20.182;2024-03-22T04:28:41;10.04;82.59
75022;SHT31;63583;49.976;20.182;2024-03-22T04:31:08;10.12;82.54
75022;SHT31;63583;49.976;20.182;2024-03-22T04:33:37;10.12;82.55
75022;SHT31;63583;49.976;20.182;2024-03-22T04:36:04;10.08;82.56
75022;SHT31;63583;49.976;20.182;2024-03-22T04:38:31;10.05;82.94
75022;SHT31;63583;49.976;20.182;2024-03-22T04:40:57;9.94;83.18
75022;SHT31;63583;49.976;20.182;2024-03-22T04:43:24;9.91;83.35
75022;SHT31;63583;49.976;20.182;2024-03-22T04:45:50;10.01;83.36
75022;SHT31;63583;49.976;20.182;2024-03-22T04:48:21;9.97;83.52
75022;SHT31;63583;49.976;20.182;2024-03-22T04:50:51;10.02;83.51
75022;SHT31;63583;49.976;20.182;2024-03-22T04:53:18;10.06;83.26
75022;SHT31;63583;49.976;20.182;2024-03-22T04:55:44;10.02;83.56
75022;SHT31;63583;49.976;20.182;2024-03-22T04:58:17;9.97;83.71
75022;SHT31;63583;49.976;20.182;2024-03-22T05:00:44;9.98;83.83
75022;SHT31;63583;49.976;20.182;2024-03-22T05:03:10;9.88;84.08
75022;SHT31;63583;49.976;20.182;2024-03-22T05:05:38;9.81;84.48
75022;SHT31;63583;49.976;20.182;2024-03-22T05:08:04;9.83;84.59
75022;SHT31;63583;49.976;20.182;2024-03-22T05:10:30;9.91;84.43
75022;SHT31;63583;49.976;20.182;2024-03-22T05:12:56;9.73;85.11
75022;SHT31;63583;49.976;20.182;2024-03-22T05:15:22;9.80;85.07
75022;SHT31;63583;49.976;20.182;2024-03-22T05:17:49;9.87;84.82
75022;SHT31;63583;49.976;20.182;2024-03-22T05:20:15;9.93;84.67
75022;SHT31;63583;49.976;20.182;2024-03-22T05:22:42;9.95;84.62
75022;SHT31;63583;49.976;20.182;2024-03-22T05:25:08;9.84;85.02
75022;SHT31;63583;49.976;20.182;2024-03-22T05:27:34;9.78;85.35
75022;SHT31;63583;49.976;20.182;2024-03-22T05:30:00;9.88;85.19
75022;SHT31;63583;49.976;20.182;2024-03-22T05:32:26;9.87;85.45
75022;SHT31;63583;49.976;20.182;2024-03-22T05:34:53;10.02;84.94
75022;SHT31;63583;49.976;20.182;2024-03-22T05:37:19;10.01;84.87
75022;SHT31;63583;49.976;20.182;2024-03-22T05:39:45;9.99;85.04
75022;SHT31;63583;49.976;20.182;2024-03-22T05:42:11;10.05;85.16
75022;SHT31;63583;49.976;20.182;2024-03-22T05:44:36;10.08;85.15
75022;SHT31;63583;49.976;20.182;2024-03-22T05:47:02;9.99;85.69
75022;SHT31;63583;49.976;20.182;2024-03-22T05:49:28;9.98;85.96
75022;SHT31;63583;49.976;20.182;2024-03-22T05:51:55;10.04;85.90
75022;SHT31;63583;49.976;20.182;2024-03-22T05:54:21;10.01;85.88
75022;SHT31;63583;49.976;20.182;2024-03-22T05:56:47;10.11;85.67
75022;SHT31;63583;49.976;20.182;2024-03-22T05:59:12;10.14;85.80
75022;SHT31;63583;49.976;20.182;2024-03-22T06:01:38;10.09;85.86
75022;SHT31;63583;49.976;20.182;2024-03-22T06:04:04;10.09;85.94
75022;SHT31;63583;49.976;20.182;2024-03-22T06:06:34;10.01;86.24
75022;SHT31;63583;49.976;20.182;2024-03-22T06:09:00;9.98;86.64
75022;SHT31;63583;49.976;20.182;2024-03-22T06:11:30;10.18;85.69
75022;SHT31;63583;49.976;20.182;2024-03-22T06:13:55;10.21;85.64
75022;SHT31;63583;49.976;20.182;2024-03-22T06:16:22;10.19;85.76
75022;SHT31;63583;49.976;20.182;2024-03-22T06:18:47;10.24;85.74
75022;SHT31;63583;49.976;20.182;2024-03-22T06:21:14;10.16;85.80
75022;SHT31;63583;49.976;20.182;2024-03-22T06:23:50;10.16;85.80
75022;SHT31;63583;49.976;20.182;2024-03-22T06:26:17;10.18;85.96
75022;SHT31;63583;49.976;20.182;2024-03-22T06:28:43;10.24;85.75
75022;SHT31;63583;49.976;20.182;2024-03-22T06:31:09;10.28;85.82
75022;SHT31;63583;49.976;20.182;2024-03-22T06:33:34;10.16;86.07
75022;SHT31;63583;49.976;20.182;2024-03-22T06:36:02;10.31;85.55
75022;SHT31;63583;49.976;20.182;2024-03-22T06:38:29;10.25;85.48
75022;SHT31;63583;49.976;20.182;2024-03-22T06:40:55;10.29;85.51
75022;SHT31;63583;49.976;20.182;2024-03-22T06:43:20;10.32;85.49
75022;SHT31;63583;49.976;20.182;2024-03-22T06:45:46;10.46;84.89
75022;SHT31;63583;49.976;20.182;2024-03-22T06:48:13;10.36;85.24
75022;SHT31;63583;49.976;20.182;2024-03-22T06:50:41;10.41;85.19
75022;SHT31;63583;49.976;20.182;2024-03-22T06:53:07;10.50;84.57
75022;SHT31;63583;49.976;20.182;2024-03-22T06:55:33;10.45;85.08
75022;SHT31;63583;49.976;20.182;2024-03-22T06:57:58;10.52;84.68
75022;SHT31;63583;49.976;20.182;2024-03-22T07:00:24;10.59;84.21
75022;SHT31;63583;49.976;20.182;2024-03-22T07:02:50;10.56;84.72
75022;SHT31;63583;49.976;20.182;2024-03-22T07:05:16;10.53;85.07
75022;SHT31;63583;49.976;20.182;2024-03-22T07:07:42;10.53;84.86
75022;SHT31;63583;49.976;20.182;2024-03-22T07:10:08;10.53;84.98
75022;SHT31;63583;49.976;20.182;2024-03-22T07:12:34;10.66;84.53
75022;SHT31;63583;49.976;20.182;2024-03-22T07:15:01;10.55;84.82
75022;SHT31;63583;49.976;20.182;2024-03-22T07:17:28;10.64;84.81
75022;SHT31;63583;49.976;20.182;2024-03-22T07:19:54;10.70;84.56
75022;SHT31;63583;49.976;20.182;2024-03-22T07:22:21;10.87;84.28
75022;SHT31;63583;49.976;20.182;2024-03-22T07:24:48;10.91;83.58
75022;SHT31;63583;49.976;20.182;2024-03-22T07:27:14;10.93;82.87
75022;SHT31;63583;49.976;20.182;2024-03-22T07:29:41;11.01;82.53
75022;SHT31;63583;49.976;20.182;2024-03-22T07:32:07;11.12;82.43
75022;SHT31;63583;49.976;20.182;2024-03-22T07:34:33;11.21;82.11
75022;SHT31;63583;49.976;20.182;2024-03-22T07:36:58;11.20;82.23
75022;SHT31;63583;49.976;20.182;2024-03-22T07:39:24;11.17;82.34
75022;SHT31;63583;49.976;20.182;2024-03-22T07:41:50;11.17;82.95
75022;SHT31;63583;49.976;20.182;2024-03-22T07:44:17;11.20;82.77
75022;SHT31;63583;49.976;20.182;2024-03-22T07:46:46;11.15;82.85
75022;SHT31;63583;49.976;20.182;2024-03-22T07:49:12;11.25;82.41
75022;SHT31;63583;49.976;20.182;2024-03-22T07:51:38;11.28;82.18
75022;SHT31;63583;49.976;20.182;2024-03-22T07:54:04;11.18;82.16
75022;SHT31;63583;49.976;20.182;2024-03-22T07:56:30;11.14;82.03
75022;SHT31;63583;49.976;20.182;2024-03-22T07:58:56;11.04;82.38
75022;SHT31;63583;49.976;20.182;2024-03-22T08:01:22;10.83;83.28
75022;SHT31;63583;49.976;20.182;2024-03-22T08:03:49;10.74;83.36
75022;SHT31;63583;49.976;20.182;2024-03-22T08:06:15;10.83;82.44
75022;SHT31;63583;49.976;20.182;2024-03-22T08:08:41;10.77;82.98
75022;SHT31;63583;49.976;20.182;2024-03-22T08:11:06;10.77;83.02
75022;SHT31;63583;49.976;20.182;2024-03-22T08:13:32;10.67;82.55
75022;SHT31;63583;49.976;20.182;2024-03-22T08:15:58;10.59;82.67
75022;SHT31;63583;49.976;20.182;2024-03-22T08:18:24;10.50;83.29
75022;SHT31;63583;49.976;20.182;2024-03-22T08:20:49;10.60;82.90
75022;SHT31;63583;49.976;20.182;2024-03-22T08:23:15;10.48;83.51
75022;SHT31;63583;49.976;20.182;2024-03-22T08:25:43;10.63;83.19
75022;SHT31;63583;49.976;20.182;2024-03-22T08:28:09;10.56;83.49
75022;SHT31;63583;49.976;20.182;2024-03-22T08:30:37;10.50;84.04
75022;SHT31;63583;49.976;20.182;2024-03-22T08:33:03;10.46;84.70
75022;SHT31;63583;49.976;20.182;2024-03-22T08:35:29;10.41;85.31
75022;SHT31;63583;49.976;20.182;2024-03-22T08:37:56;10.39;85.63
75022;SHT31;63583;49.976;20.182;2024-03-22T08:40:22;10.39;85.69
75022;SHT31;63583;49.976;20.182;2024-03-22T08:42:48;10.35;86.19
75022;SHT31;63583;49.976;20.182;2024-03-22T08:45:14;10.39;86.20
75022;SHT31;63583;49.976;20.182;2024-03-22T08:47:43;10.43;86.32
75022;SHT31;63583;49.976;20.182;2024-03-22T08:50:10;10.38;86.48
75022;SHT31;63583;49.976;20.182;2024-03-22T08:52:37;10.35;86.36
75022;SHT31;63583;49.976;20.182;2024-03-22T08:55:04;10.32;86.27
75022;SHT31;63583;49.976;20.182;2024-03-22T08:57:32;10.39;86.37
75022;SHT31;63583;49.976;20.182;2024-03-22T08:59:58;10.33;86.04
75022;SHT31;63583;49.976;20.182;2024-03-22T09:02:24;10.46;86.13
75022;SHT31;63583;49.976;20.182;2024-03-22T09:04:50;10.57;85.63
75022;SHT31;63583;49.976;20.182;2024-03-22T09:07:17;10.55;85.62
75022;SHT31;63583;49.976;20.182;2024-03-22T09:09:42;10.63;85.23
75022;SHT31;63583;49.976;20.182;2024-03-22T09:12:08;10.79;84.86
75022;SHT31;63583;49.976;20.182;2024-03-22T09:14:34;10.85;84.58
75022;SHT31;63583;49.976;20.182;2024-03-22T09:17:00;10.84;84.35
75022;SHT31;63583;49.976;20.182;2024-03-22T09:19:26;10.84;84.52
75022;SHT31;63583;49.976;20.182;2024-03-22T09:21:54;10.85;84.17
75022;SHT31;63583;49.976;20.182;2024-03-22T09:24:19;11.04;83.70
75022;SHT31;63583;49.976;20.182;2024-03-22T09:26:45;11.17;83.28
75022;SHT31;63583;49.976;20.182;2024-03-22T09:29:13;11.31;81.13
75022;SHT31;63583;49.976;20.182;2024-03-22T09:31:39;11.45;80.89
75022;SHT31;63583;49.976;20.182;2024-03-22T09:34:04;11.65;79.23
75022;SHT31;63583;49.976;20.182;2024-03-22T09:36:31;11.80;77.09
75022;SHT31;63583;49.976;20.182;2024-03-22T09:39:01;11.97;77.65
75022;SHT31;63583;49.976;20.182;2024-03-22T09:41:29;12.07;76.78
75022;SHT31;63583;49.976;20.182;2024-03-22T09:43:58;12.17;73.92
75022;SHT31;63583;49.976;20.182;2024-03-22T09:46:24;12.16;73.74
75022;SHT31;63583;49.976;20.182;2024-03-22T09:48:52;12.20;74.47
75022;SHT31;63583;49.976;20.182;2024-03-22T09:51:18;12.33;72.85
75022;SHT31;63583;49.976;20.182;2024-03-22T09:53:44;12.20;73.93
75022;SHT31;63583;49.976;20.182;2024-03-22T09:56:14;12.33;72.77
75022;SHT31;63583;49.976;20.182;2024-03-22T09:58:41;12.16;73.36
75022;SHT31;63583;49.976;20.182;2024-03-22T10:01:08;12.20;73.55
75022;SHT31;63583;49.976;20.182;2024-03-22T10:03:33;12.27;73.32
75022;SHT31;63583;49.976;20.182;2024-03-22T10:06:00;12.01;74.09
75022;SHT31;63583;49.976;20.182;2024-03-22T10:08:26;11.98;73.59
75022;SHT31;63583;49.976;20.182;2024-03-22T10:10:51;12.01;74.64
75022;SHT31;63583;49.976;20.182;2024-03-22T10:13:17;12.07;74.11
75022;SHT31;63583;49.976;20.182;2024-03-22T10:15:43;12.08;74.00
75022;SHT31;63583;49.976;20.182;2024-03-22T10:18:10;11.90;73.24
75022;SHT31;63583;49.976;20.182;2024-03-22T10:20:36;11.94;72.98
75022;SHT31;63583;49.976;20.182;2024-03-22T10:23:02;11.86;72.62
75022;SHT31;63583;49.976;20.182;2024-03-22T10:25:28;11.90;72.34
75022;SHT31;63583;49.976;20.182;2024-03-22T10:27:55;11.85;72.91
75022;SHT31;63583;49.976;20.182;2024-03-22T10:30:23;11.76;73.60
75022;SHT31;63583;49.976;20.182;2024-03-22T10:32:49;11.76;73.68
75022;SHT31;63583;49.976;20.182;2024-03-22T10:35:15;11.77;74.14
75022;SHT31;63583;49.976;20.182;2024-03-22T10:37:42;11.85;73.68
75022;SHT31;63583;49.976;20.182;2024-03-22T10:40:09;11.77;74.02
75022;SHT31;63583;49.976;20.182;2024-03-22T10:42:39;11.73;74.48
75022;SHT31;63583;49.976;20.182;2024-03-22T10:45:07;11.77;74.01
75022;SHT31;63583;49.976;20.182;2024-03-22T10:47:34;11.91;73.28
75022;SHT31;63583;49.976;20.182;2024-03-22T10:50:08;11.96;72.85
75022;SHT31;63583;49.976;20.182;2024-03-22T10:52:45;11.94;73.07
75022;SHT31;63583;49.976;20.182;2024-03-22T10:55:21;11.98;73.03
75022;SHT31;63583;49.976;20.182;2024-03-22T10:57:48;12.12;72.70
75022;SHT31;63583;49.976;20.182;2024-03-22T11:00:14;12.20;72.28
75022;SHT31;63583;49.976;20.182;2024-03-22T11:02:44;12.52;71.34
75022;SHT31;63583;49.976;20.182;2024-03-22T11:05:17;12.45;71.08
75022;SHT31;63583;49.976;20.182;2024-03-22T11:07:44;12.51;71.25
75022;SHT31;63583;49.976;20.182;2024-03-22T11:10:13;12.59;72.80
75022;SHT31;63583;49.976;20.182;2024-03-22T11:12:40;12.72;72.02
75022;SHT31;63583;49.976;20.182;2024-03-22T11:15:07;12.46;70.65
75022;SHT31;63583;49.976;20.182;2024-03-22T11:17:32;12.31;72.22
75022;SHT31;63583;49.976;20.182;2024-03-22T11:19:58;12.45;71.38
75022;SHT31;63583;49.976;20.182;2024-03-22T11:22:27;12.52;71.13
75022;SHT31;63583;49.976;20.182;2024-03-22T11:24:53;12.41;72.16
75022;SHT31;63583;49.976;20.182;2024-03-22T11:27:19;12.25;72.06
75022;SHT31;63583;49.976;20.182;2024-03-22T11:29:45;12.40;71.36
75022;SHT31;63583;49.976;20.182;2024-03-22T11:32:12;12.30;70.98
75022;SHT31;63583;49.976;20.182;2024-03-22T11:34:38;12.38;71.84
75022;SHT31;63583;49.976;20.182;2024-03-22T11:37:07;12.20;72.06
75022;SHT31;63583;49.976;20.182;2024-03-22T11:39:39;12.04;73.00
75022;SHT31;63583;49.976;20.182;2024-03-22T11:42:06;12.12;72.49
75022;SHT31;63583;49.976;20.182;2024-03-22T11:44:35;12.20;72.51
75022;SHT31;63583;49.976;20.182;2024-03-22T11:47:02;12.48;71.41
75022;SHT31;63583;49.976;20.182;2024-03-22T11:49:29;12.52;71.30
75022;SHT31;63583;49.976;20.182;2024-03-22T11:51:56;12.46;71.52
75022;SHT31;63583;49.976;20.182;2024-03-22T11:54:22;12.63;71.11
75022;SHT31;63583;49.976;20.182;2024-03-22T11:56:51;12.63;71.34
75022;SHT31;63583;49.976;20.182;2024-03-22T11:59:20;12.68;71.78
75022;SHT31;63583;49.976;20.182;2024-03-22T12:01:46;12.78;72.36
75022;SHT31;63583;49.976;20.182;2024-03-22T12:04:13;12.93;71.09
75022;SHT31;63583;49.976;20.182;2024-03-22T12:06:44;12.90;70.85
75022;SHT31;63583;49.976;20.182;2024-03-22T12:09:11;13.02;70.40
75022;SHT31;63583;49.976;20.182;2024-03-22T12:11:39;12.85;71.06
75022;SHT31;63583;49.976;20.182;2024-03-22T12:14:06;12.79;70.72
75022;SHT31;63583;49.976;20.182;2024-03-22T12:16:31;12.69;71.25
75022;SHT31;63583;49.976;20.182;2024-03-22T12:18:58;12.83;71.73
75022;SHT31;63583;49.976;20.182;2024-03-22T12:21:24;12.81;70.94
75022;SHT31;63583;49.976;20.182;2024-03-22T12:23:50;12.90;70.34
75022;SHT31;63583;49.976;20.182;2024-03-22T12:26:16;12.96;71.33
75022;SHT31;63583;49.976;20.182;2024-03-22T12:28:42;12.79;70.21
75022;SHT31;63583;49.976;20.182;2024-03-22T12:31:08;12.65;70.83
75022;SHT31;63583;49.976;20.182;2024-03-22T12:33:36;12.46;70.93
75022;SHT31;63583;49.976;20.182;2024-03-22T12:36:03;12.75;69.97
75022;SHT31;63583;49.976;20.182;2024-03-22T12:38:29;12.78;70.03
75022;SHT31;63583;49.976;20.182;2024-03-22T12:40:56;12.75;70.33
75022;SHT31;63583;49.976;20.182;2024-03-22T12:43:22;12.75;69.85
75022;SHT31;63583;49.976;20.182;2024-03-22T12:45:47;12.65;70.41
75022;SHT31;63583;49.976;20.182;2024-03-22T12:48:13;12.81;70.00
75022;SHT31;63583;49.976;20.182;2024-03-22T12:50:39;12.86;70.36
75022;SHT31;63583;49.976;20.182;2024-03-22T12:53:05;12.99;69.55
75022;SHT31;63583;49.976;20.182;2024-03-22T12:55:30;12.90;70.20
75022;SHT31;63583;49.976;20.182;2024-03-22T12:58:00;12.81;70.38
75022;SHT31;63583;49.976;20.182;2024-03-22T13:00:25;12.93;70.16
75022;SHT31;63583;49.976;20.182;2024-03-22T13:02:51;12.75;70.07
75022;SHT31;63583;49.976;20.182;2024-03-22T13:05:17;12.65;70.62
75022;SHT31;63583;49.976;20.182;2024-03-22T13:07:43;12.61;70.13
75022;SHT31;63583;49.976;20.182;2024-03-22T13:10:09;12.66;70.64
75022;SHT31;63583;49.976;20.182;2024-03-22T13:12:35;12.65;70.32
75022;SHT31;63583;49.976;20.182;2024-03-22T13:15:02;12.68;71.56
75022;SHT31;63583;49.976;20.182;2024-03-22T13:17:28;12.68;70.09
75022;SHT31;63583;49.976;20.182;2024-03-22T13:19:54;12.49;71.36
75022;SHT31;63583;49.976;20.182;2024-03-22T13:22:20;12.66;70.61
75022;SHT31;63583;49.976;20.182;2024-03-22T13:24:46;12.52;70.44
75022;SHT31;63583;49.976;20.182;2024-03-22T13:27:13;12.54;70.54
75022;SHT31;63583;49.976;20.182;2024-03-22T13:29:39;12.65;70.90
75022;SHT31;63583;49.976;20.182;2024-03-22T13:32:06;12.51;71.11
75022;SHT31;63583;49.976;20.182;2024-03-22T13:34:36;12.61;71.20
75022;SHT31;63583;49.976;20.182;2024-03-22T13:37:02;12.48;71.54
75022;SHT31;63583;49.976;20.182;2024-03-22T13:39:28;12.25;71.97
75022;SHT31;63583;49.976;20.182;2024-03-22T13:41:57;12.46;71.39
75022;SHT31;63583;49.976;20.182;2024-03-22T13:44:23;12.49;71.20
75022;SHT31;63583;49.976;20.182;2024-03-22T13:46:50;12.54;71.60
75022;SHT31;63583;49.976;20.182;2024-03-22T13:49:17;12.59;71.46
75022;SHT31;63583;49.976;20.182;2024-03-22T13:51:43;12.59;71.34
75022;SHT31;63583;49.976;20.182;2024-03-22T13:54:11;12.58;71.19
75022;SHT31;63583;49.976;20.182;2024-03-22T13:56:37;12.62;71.87
75022;SHT31;63583;49.976;20.182;2024-03-22T13:59:06;12.61;72.43
75022;SHT31;63583;49.976;20.182;2024-03-22T14:01:34;12.55;72.23
75022;SHT31;63583;49.976;20.182;2024-03-22T14:04:00;12.49;72.67
75022;SHT31;63583;49.976;20.182;2024-03-22T14:06:26;12.38;71.97
75022;SHT31;63583;49.976;20.182;2024-03-22T14:08:51;12.34;71.87
75022;SHT31;63583;49.976;20.182;2024-03-22T14:11:20;12.38;71.97
75022;SHT31;63583;49.976;20.182;2024-03-22T14:13:46;12.45;71.61
75022;SHT31;63583;49.976;20.182;2024-03-22T14:16:12;12.44;71.85
75022;SHT31;63583;49.976;20.182;2024-03-22T14:18:37;12.34;71.73
75022;SHT31;63583;49.976;20.182;2024-03-22T14:21:03;12.34;71.44
75022;SHT31;63583;49.976;20.182;2024-03-22T14:23:29;12.46;71.19
75022;SHT31;63583;49.976;20.182;2024-03-22T14:25:55;12.51;71.37
75022;SHT31;63583;49.976;20.182;2024-03-22T14:28:21;12.59;71.10
75022;SHT31;63583;49.976;20.182;2024-03-22T14:30:47;12.45;71.38
75022;SHT31;63583;49.976;20.182;2024-03-22T14:33:13;12.55;71.89
75022;SHT31;63583;49.976;20.182;2024-03-22T14:35:39;12.58;72.55
75022;SHT31;63583;49.976;20.182;2024-03-22T14:38:04;12.59;72.23
75022;SHT31;63583;49.976;20.182;2024-03-22T14:40:30;12.66;71.58
75022;SHT31;63583;49.976;20.182;2024-03-22T14:43:03;12.65;71.50
75022;SHT31;63583;49.976;20.182;2024-03-22T14:45:30;12.45;71.71
75022;SHT31;63583;49.976;20.182;2024-03-22T14:47:56;12.48;71.64
75022;SHT31;63583;49.976;20.182;2024-03-22T14:50:23;12.55;71.33
75022;SHT31;63583;49.976;20.182;2024-03-22T14:52:49;12.42;71.65
75022;SHT31;63583;49.976;20.182;2024-03-22T14:55:16;12.34;71.86
75022;SHT31;63583;49.976;20.182;2024-03-22T14:57:41;12.38;72.25
75022;SHT31;63583;49.976;20.182;2024-03-22T15:00:07;12.25;72.90
75022;SHT31;63583;49.976;20.182;2024-03-22T15:02:36;12.24;72.99
75022;SHT31;63583;49.976;20.182;2024-03-22T15:05:02;12.06;73.26
75022;SHT31;63583;49.976;20.182;2024-03-22T15:07:30;12.12;72.11
75022;SHT31;63583;49.976;20.182;2024-03-22T15:09:56;12.03;72.11
75022;SHT31;63583;49.976;20.182;2024-03-22T15:12:22;11.90;72.32